sensor_id;sensor_type;location;lat;lon;timestamp;P1;durP1;ratioP1;P2;durP2;ratioP2
71253;SDS011;59019;47.638;18.966;2023-01-20T00:01:13;21.30;;;10.13;;
71253;SDS011;59019;47.638;18.966;2023-01-20T00:03:39;21.02;;;10.18;;
71253;SDS011;59019;47.638;18.966;2023-01-20T00:06:06;19.58;;;9.60;;
71253;SDS011;59019;47.638;18.966;2023-01-20T00:08:32;20.63;;;9.63;;
71253;SDS011;59019;47.638;18.966;2023-01-20T00:10:58;20.50;;;9.25;;
71253;SDS011;59019;47.638;18.966;2023-01-20T00:13:23;21.27;;;10.30;;
71253;SDS011;59019;47.638;18.966;2023-01-20T00:15:49;21.95;;;10.30;;
71253;SDS011;59019;47.638;18.966;2023-01-20T00:18:14;21.30;;;10.57;;
71253;SDS011;59019;47.638;18.966;2023-01-20T00:20:40;19.67;;;9.47;;
71253;SDS011;59019;47.638;18.966;2023-01-20T00:23:06;22.42;;;10.48;;
71253;SDS011;59019;47.638;18.966;2023-01-20T00:25:34;21.88;;;9.80;;
71253;SDS011;59019;47.638;18.966;2023-01-20T00:27:59;21.80;;;10.57;;
71253;SDS011;59019;47.638;18.966;2023-01-20T00:30:25;21.52;;;9.73;;
71253;SDS011;59019;47.638;18.966;2023-01-20T00:32:50;21.13;;;9.17;;
71253;SDS011;59019;47.638;18.966;2023-01-20T00:35:16;19.47;;;9.27;;
71253;SDS011;59019;47.638;18.966;2023-01-20T00:37:41;20.70;;;9.07;;
71253;SDS011;59019;47.638;18.966;2023-01-20T00:40:07;18.75;;;9.02;;
71253;SDS011;59019;47.638;18.966;2023-01-20T00:42:33;20.57;;;8.70;;
71253;SDS011;59019;47.638;18.966;2023-01-20T00:44:59;20.35;;;10.57;;
71253;SDS011;59019;47.638;18.966;2023-01-20T00:47:24;22.70;;;10.83;;
71253;SDS011;59019;47.638;18.966;2023-01-20T00:49:50;22.73;;;9.90;;
71253;SDS011;59019;47.638;18.966;2023-01-20T00:52:15;25.50;;;11.77;;
71253;SDS011;59019;47.638;18.966;2023-01-20T00:54:43;22.55;;;10.80;;
71253;SDS011;59019;47.638;18.966;2023-01-20T00:57:09;21.35;;;10.07;;
71253;SDS011;59019;47.638;18.966;2023-01-20T00:59:34;20.48;;;9.32;;
71253;SDS011;59019;47.638;18.966;2023-01-20T01:02:00;19.53;;;8.57;;
71253;SDS011;59019;47.638;18.966;2023-01-20T01:04:26;22.97;;;10.33;;
71253;SDS011;59019;47.638;18.966;2023-01-20T01:06:51;22.20;;;10.23;;
71253;SDS011;59019;47.638;18.966;2023-01-20T01:09:17;19.83;;;9.90;;
71253;SDS011;59019;47.638;18.966;2023-01-20T01:11:42;18.67;;;9.50;;
71253;SDS011;59019;47.638;18.966;2023-01-20T01:14:08;17.23;;;8.47;;
71253;SDS011;59019;47.638;18.966;2023-01-20T01:16:33;20.92;;;9.30;;
71253;SDS011;59019;47.638;18.966;2023-01-20T01:19:00;22.83;;;9.63;;
71253;SDS011;59019;47.638;18.966;2023-01-20T01:21:25;19.90;;;9.07;;
71253;SDS011;59019;47.638;18.966;2023-01-20T01:23:51;17.50;;;8.10;;
71253;SDS011;59019;47.638;18.966;2023-01-20T01:26:17;18.10;;;8.75;;
71253;SDS011;59019;47.638;18.966;2023-01-20T01:28:43;20.03;;;8.67;;
71253;SDS011;59019;47.638;18.966;2023-01-20T01:31:11;19.00;;;9.00;;
71253;SDS011;59019;47.638;18.966;2023-01-20T01:33:36;17.27;;;8.40;;
71253;SDS011;59019;47.638;18.966;2023-01-20T01:36:02;15.80;;;8.10;;
71253;SDS011;59019;47.638;18.966;2023-01-20T01:38:28;19.27;;;8.23;;
71253;SDS011;59019;47.638;18.966;2023-01-20T01:40:54;17.73;;;8.43;;
71253;SDS011;59019;47.638;18.966;2023-01-20T01:45:53;15.35;;;7.78;;
71253;SDS011;59019;47.638;18.966;2023-01-20T01:48:40;20.00;;;8.45;;
71253;SDS011;59019;47.638;18.966;2023-01-20T01:51:08;18.88;;;8.43;;
71253;SDS011;59019;47.638;18.966;2023-01-20T01:53:41;18.35;;;7.90;;
71253;SDS011;59019;47.638;18.966;2023-01-20T01:56:09;19.58;;;8.38;;
71253;SDS011;59019;47.638;18.966;2023-01-20T01:58:38;19.92;;;9.27;;
71253;SDS011;59019;47.638;18.966;2023-01-20T02:01:08;20.30;;;9.40;;
71253;SDS011;59019;47.638;18.966;2023-01-20T02:04:19;19.35;;;8.73;;
71253;SDS011;59019;47.638;18.966;2023-01-20T02:06:30;19.58;;;9.25;;
71253;SDS011;59019;47.638;18.966;2023-01-20T02:08:57;20.33;;;9.15;;
71253;SDS011;59019;47.638;18.966;2023-01-20T02:11:25;19.92;;;8.48;;
71253;SDS011;59019;47.638;18.966;2023-01-20T02:13:51;18.93;;;8.93;;
71253;SDS011;59019;47.638;18.966;2023-01-20T02:16:21;17.63;;;8.68;;
71253;SDS011;59019;47.638;18.966;2023-01-20T02:25:28;18.10;;;7.75;;
71253;SDS011;59019;47.638;18.966;2023-01-20T02:36:43;18.77;;;8.30;;
71253;SDS011;59019;47.638;18.966;2023-01-20T02:44:47;22.45;;;10.07;;
71253;SDS011;59019;47.638;18.966;2023-01-20T02:53:34;17.90;;;8.65;;
71253;SDS011;59019;47.638;18.966;2023-01-20T02:56:04;20.10;;;9.47;;
71253;SDS011;59019;47.638;18.966;2023-01-20T02:58:39;19.88;;;9.27;;
71253;SDS011;59019;47.638;18.966;2023-01-20T03:01:12;20.42;;;9.23;;
71253;SDS011;59019;47.638;18.966;2023-01-20T03:03:42;20.45;;;9.27;;
71253;SDS011;59019;47.638;18.966;2023-01-20T03:06:15;18.88;;;9.05;;
71253;SDS011;59019;47.638;18.966;2023-01-20T03:08:43;19.50;;;9.60;;
71253;SDS011;59019;47.638;18.966;2023-01-20T03:11:12;17.02;;;8.48;;
71253;SDS011;59019;47.638;18.966;2023-01-20T03:13:47;17.73;;;8.85;;
71253;SDS011;59019;47.638;18.966;2023-01-20T03:16:25;16.87;;;8.10;;
71253;SDS011;59019;47.638;18.966;2023-01-20T03:18:53;18.40;;;8.30;;
71253;SDS011;59019;47.638;18.966;2023-01-20T03:21:19;19.13;;;8.43;;
71253;SDS011;59019;47.638;18.966;2023-01-20T03:23:47;18.27;;;8.48;;
71253;SDS011;59019;47.638;18.966;2023-01-20T03:26:15;18.33;;;8.65;;
71253;SDS011;59019;47.638;18.966;2023-01-20T03:28:42;17.43;;;8.27;;
71253;SDS011;59019;47.638;18.966;2023-01-20T03:31:20;17.45;;;8.18;;
71253;SDS011;59019;47.638;18.966;2023-01-20T03:33:51;18.30;;;8.13;;
71253;SDS011;59019;47.638;18.966;2023-01-20T03:36:19;19.05;;;9.18;;
71253;SDS011;59019;47.638;18.966;2023-01-20T03:38:46;19.23;;;9.00;;
71253;SDS011;59019;47.638;18.966;2023-01-20T03:41:15;18.40;;;9.37;;
71253;SDS011;59019;47.638;18.966;2023-01-20T03:43:58;20.60;;;9.60;;
71253;SDS011;59019;47.638;18.966;2023-01-20T03:46:50;18.75;;;9.15;;
71253;SDS011;59019;47.638;18.966;2023-01-20T03:49:25;18.67;;;8.63;;
71253;SDS011;59019;47.638;18.966;2023-01-20T03:54:36;16.90;;;8.10;;
71253;SDS011;59019;47.638;18.966;2023-01-20T03:57:20;18.45;;;8.55;;
71253;SDS011;59019;47.638;18.966;2023-01-20T03:59:55;20.40;;;9.75;;
71253;SDS011;59019;47.638;18.966;2023-01-20T04:02:22;18.52;;;8.60;;
71253;SDS011;59019;47.638;18.966;2023-01-20T04:04:50;16.75;;;7.82;;
71253;SDS011;59019;47.638;18.966;2023-01-20T04:07:18;21.97;;;10.00;;
71253;SDS011;59019;47.638;18.966;2023-01-20T04:09:48;21.65;;;10.98;;
71253;SDS011;59019;47.638;18.966;2023-01-20T04:12:17;22.70;;;10.80;;
71253;SDS011;59019;47.638;18.966;2023-01-20T04:14:43;20.40;;;10.00;;
71253;SDS011;59019;47.638;18.966;2023-01-20T04:17:08;18.88;;;9.38;;
71253;SDS011;59019;47.638;18.966;2023-01-20T04:19:34;21.57;;;10.63;;
71253;SDS011;59019;47.638;18.966;2023-01-20T04:24:46;20.15;;;9.32;;
71253;SDS011;59019;47.638;18.966;2023-01-20T04:27:18;21.75;;;11.82;;
71253;SDS011;59019;47.638;18.966;2023-01-20T04:29:43;19.83;;;9.37;;
71253;SDS011;59019;47.638;18.966;2023-01-20T04:32:09;20.63;;;8.93;;
71253;SDS011;59019;47.638;18.966;2023-01-20T04:34:36;22.60;;;10.53;;
71253;SDS011;59019;47.638;18.966;2023-01-20T04:37:02;22.30;;;9.88;;
71253;SDS011;59019;47.638;18.966;2023-01-20T04:39:27;21.57;;;10.53;;
71253;SDS011;59019;47.638;18.966;2023-01-20T04:41:53;27.85;;;13.20;;
71253;SDS011;59019;47.638;18.966;2023-01-20T04:44:18;20.83;;;9.68;;
71253;SDS011;59019;47.638;18.966;2023-01-20T04:46:44;20.80;;;10.13;;
71253;SDS011;59019;47.638;18.966;2023-01-20T04:49:12;20.50;;;9.52;;
71253;SDS011;59019;47.638;18.966;2023-01-20T04:51:38;22.08;;;10.52;;
71253;SDS011;59019;47.638;18.966;2023-01-20T04:54:04;20.93;;;9.90;;
71253;SDS011;59019;47.638;18.966;2023-01-20T04:56:30;21.17;;;10.83;;
71253;SDS011;59019;47.638;18.966;2023-01-20T04:58:55;21.30;;;10.32;;
71253;SDS011;59019;47.638;18.966;2023-01-20T05:01:21;27.20;;;13.77;;
71253;SDS011;59019;47.638;18.966;2023-01-20T05:03:46;24.47;;;12.37;;
71253;SDS011;59019;47.638;18.966;2023-01-20T05:06:12;21.83;;;11.23;;
71253;SDS011;59019;47.638;18.966;2023-01-20T05:08:38;21.83;;;10.57;;
71253;SDS011;59019;47.638;18.966;2023-01-20T05:11:04;30.67;;;15.70;;
71253;SDS011;59019;47.638;18.966;2023-01-20T05:13:29;27.43;;;12.53;;
71253;SDS011;59019;47.638;18.966;2023-01-20T05:15:56;21.50;;;9.68;;
71253;SDS011;59019;47.638;18.966;2023-01-20T05:18:22;18.27;;;8.65;;
71253;SDS011;59019;47.638;18.966;2023-01-20T05:20:48;20.13;;;9.63;;
71253;SDS011;59019;47.638;18.966;2023-01-20T05:23:14;19.45;;;8.60;;
71253;SDS011;59019;47.638;18.966;2023-01-20T05:25:40;17.92;;;8.43;;
71253;SDS011;59019;47.638;18.966;2023-01-20T05:28:06;17.43;;;8.40;;
71253;SDS011;59019;47.638;18.966;2023-01-20T05:30:32;17.25;;;8.85;;
71253;SDS011;59019;47.638;18.966;2023-01-20T05:32:58;19.00;;;9.23;;
71253;SDS011;59019;47.638;18.966;2023-01-20T05:35:23;17.50;;;9.05;;
71253;SDS011;59019;47.638;18.966;2023-01-20T05:37:52;14.90;;;7.57;;
71253;SDS011;59019;47.638;18.966;2023-01-20T05:40:18;15.20;;;7.05;;
71253;SDS011;59019;47.638;18.966;2023-01-20T05:42:44;14.55;;;6.82;;
71253;SDS011;59019;47.638;18.966;2023-01-20T05:45:10;15.07;;;6.70;;
71253;SDS011;59019;47.638;18.966;2023-01-20T05:47:36;15.07;;;6.80;;
71253;SDS011;59019;47.638;18.966;2023-01-20T05:50:02;14.80;;;6.13;;
71253;SDS011;59019;47.638;18.966;2023-01-20T05:52:28;15.13;;;7.30;;
71253;SDS011;59019;47.638;18.966;2023-01-20T05:54:54;20.70;;;9.13;;
71253;SDS011;59019;47.638;18.966;2023-01-20T05:57:22;21.13;;;9.47;;
71253;SDS011;59019;47.638;18.966;2023-01-20T05:59:48;19.95;;;10.88;;
71253;SDS011;59019;47.638;18.966;2023-01-20T06:02:15;17.35;;;9.20;;
71253;SDS011;59019;47.638;18.966;2023-01-20T06:04:43;15.83;;;7.83;;
71253;SDS011;59019;47.638;18.966;2023-01-20T06:07:12;15.40;;;7.40;;
71253;SDS011;59019;47.638;18.966;2023-01-20T06:09:38;16.80;;;7.13;;
71253;SDS011;59019;47.638;18.966;2023-01-20T06:12:04;17.63;;;7.63;;
71253;SDS011;59019;47.638;18.966;2023-01-20T06:14:30;17.02;;;7.60;;
71253;SDS011;59019;47.638;18.966;2023-01-20T06:16:55;17.57;;;7.40;;
71253;SDS011;59019;47.638;18.966;2023-01-20T06:19:21;20.23;;;9.93;;
71253;SDS011;59019;47.638;18.966;2023-01-20T06:21:46;17.37;;;8.03;;
71253;SDS011;59019;47.638;18.966;2023-01-20T06:24:12;15.30;;;7.20;;
71253;SDS011;59019;47.638;18.966;2023-01-20T06:26:38;15.15;;;7.25;;
71253;SDS011;59019;47.638;18.966;2023-01-20T06:29:04;16.20;;;7.40;;
71253;SDS011;59019;47.638;18.966;2023-01-20T06:31:29;15.98;;;7.47;;
71253;SDS011;59019;47.638;18.966;2023-01-20T06:33:55;16.30;;;7.90;;
71253;SDS011;59019;47.638;18.966;2023-01-20T06:36:21;16.43;;;7.73;;
71253;SDS011;59019;47.638;18.966;2023-01-20T06:38:46;15.30;;;7.70;;
71253;SDS011;59019;47.638;18.966;2023-01-20T06:41:15;18.35;;;8.20;;
71253;SDS011;59019;47.638;18.966;2023-01-20T06:43:42;17.50;;;8.57;;
71253;SDS011;59019;47.638;18.966;2023-01-20T06:46:10;16.05;;;7.28;;
71253;SDS011;59019;47.638;18.966;2023-01-20T06:48:38;14.37;;;6.87;;
71253;SDS011;59019;47.638;18.966;2023-01-20T06:51:09;12.63;;;6.20;;
71253;SDS011;59019;47.638;18.966;2023-01-20T06:53:37;13.52;;;6.22;;
71253;SDS011;59019;47.638;18.966;2023-01-20T06:56:03;12.45;;;6.00;;
71253;SDS011;59019;47.638;18.966;2023-01-20T06:58:30;12.57;;;7.53;;
71253;SDS011;59019;47.638;18.966;2023-01-20T07:00:56;13.05;;;6.82;;
71253;SDS011;59019;47.638;18.966;2023-01-20T07:03:23;12.07;;;5.75;;
71253;SDS011;59019;47.638;18.966;2023-01-20T07:06:13;13.23;;;5.57;;
71253;SDS011;59019;47.638;18.966;2023-01-20T07:08:49;13.20;;;5.95;;
71253;SDS011;59019;47.638;18.966;2023-01-20T07:11:15;13.10;;;5.88;;
71253;SDS011;59019;47.638;18.966;2023-01-20T07:13:40;10.83;;;5.57;;
71253;SDS011;59019;47.638;18.966;2023-01-20T07:16:06;17.55;;;8.40;;
71253;SDS011;59019;47.638;18.966;2023-01-20T07:18:32;19.80;;;11.37;;
71253;SDS011;59019;47.638;18.966;2023-01-20T07:20:57;20.63;;;9.40;;
71253;SDS011;59019;47.638;18.966;2023-01-20T07:23:24;19.10;;;8.67;;
71253;SDS011;59019;47.638;18.966;2023-01-20T07:25:57;22.00;;;9.52;;
71253;SDS011;59019;47.638;18.966;2023-01-20T07:28:27;23.70;;;10.63;;
71253;SDS011;59019;47.638;18.966;2023-01-20T07:30:54;18.98;;;9.85;;
71253;SDS011;59019;47.638;18.966;2023-01-20T07:33:19;26.17;;;12.93;;
71253;SDS011;59019;47.638;18.966;2023-01-20T07:35:49;19.90;;;9.32;;
71253;SDS011;59019;47.638;18.966;2023-01-20T07:38:16;28.83;;;13.45;;
71253;SDS011;59019;47.638;18.966;2023-01-20T07:40:41;21.08;;;11.85;;
71253;SDS011;59019;47.638;18.966;2023-01-20T07:43:07;22.38;;;11.77;;
71253;SDS011;59019;47.638;18.966;2023-01-20T07:45:32;17.87;;;9.30;;
71253;SDS011;59019;47.638;18.966;2023-01-20T07:47:58;19.73;;;8.53;;
71253;SDS011;59019;47.638;18.966;2023-01-20T07:50:23;18.10;;;8.20;;
71253;SDS011;59019;47.638;18.966;2023-01-20T07:52:49;21.15;;;9.23;;
71253;SDS011;59019;47.638;18.966;2023-01-20T07:55:14;17.07;;;7.07;;
71253;SDS011;59019;47.638;18.966;2023-01-20T07:57:40;17.63;;;7.67;;
71253;SDS011;59019;47.638;18.966;2023-01-20T08:00:06;19.03;;;7.57;;
71253;SDS011;59019;47.638;18.966;2023-01-20T08:02:38;16.65;;;6.85;;
71253;SDS011;59019;47.638;18.966;2023-01-20T08:05:04;24.20;;;9.90;;
71253;SDS011;59019;47.638;18.966;2023-01-20T08:07:30;19.17;;;7.70;;
71253;SDS011;59019;47.638;18.966;2023-01-20T08:09:56;19.33;;;7.63;;
71253;SDS011;59019;47.638;18.966;2023-01-20T08:12:22;25.92;;;10.55;;
71253;SDS011;59019;47.638;18.966;2023-01-20T08:14:48;17.60;;;7.53;;
71253;SDS011;59019;47.638;18.966;2023-01-20T08:17:14;25.15;;;10.70;;
71253;SDS011;59019;47.638;18.966;2023-01-20T08:19:39;26.25;;;11.18;;
71253;SDS011;59019;47.638;18.966;2023-01-20T08:22:05;25.50;;;10.77;;
71253;SDS011;59019;47.638;18.966;2023-01-20T08:24:31;16.63;;;6.78;;
71253;SDS011;59019;47.638;18.966;2023-01-20T08:26:57;20.83;;;9.10;;
71253;SDS011;59019;47.638;18.966;2023-01-20T08:29:23;20.58;;;9.82;;
71253;SDS011;59019;47.638;18.966;2023-01-20T08:31:49;19.48;;;9.45;;
71253;SDS011;59019;47.638;18.966;2023-01-20T08:34:15;17.30;;;7.97;;
71253;SDS011;59019;47.638;18.966;2023-01-20T08:36:43;18.65;;;8.57;;
71253;SDS011;59019;47.638;18.966;2023-01-20T08:39:09;17.67;;;8.80;;
71253;SDS011;59019;47.638;18.966;2023-01-20T08:41:40;16.77;;;8.88;;
71253;SDS011;59019;47.638;18.966;2023-01-20T08:44:08;18.15;;;8.60;;
71253;SDS011;59019;47.638;18.966;2023-01-20T08:46:35;17.08;;;7.78;;
71253;SDS011;59019;47.638;18.966;2023-01-20T08:49:04;14.50;;;7.07;;
71253;SDS011;59019;47.638;18.966;2023-01-20T08:51:31;13.93;;;6.47;;
71253;SDS011;59019;47.638;18.966;2023-01-20T08:53:57;14.60;;;6.80;;
71253;SDS011;59019;47.638;18.966;2023-01-20T08:56:23;17.70;;;8.13;;
71253;SDS011;59019;47.638;18.966;2023-01-20T08:58:51;15.43;;;7.80;;
71253;SDS011;59019;47.638;18.966;2023-01-20T09:01:22;19.50;;;9.02;;
71253;SDS011;59019;47.638;18.966;2023-01-20T09:03:49;21.73;;;9.38;;
71253;SDS011;59019;47.638;18.966;2023-01-20T09:06:15;18.73;;;8.70;;
71253;SDS011;59019;47.638;18.966;2023-01-20T09:08:41;17.60;;;8.68;;
71253;SDS011;59019;47.638;18.966;2023-01-20T09:11:14;19.83;;;8.48;;
71253;SDS011;59019;47.638;18.966;2023-01-20T09:13:45;20.30;;;8.57;;
71253;SDS011;59019;47.638;18.966;2023-01-20T09:16:11;16.52;;;7.30;;
71253;SDS011;59019;47.638;18.966;2023-01-20T09:18:38;14.15;;;6.55;;
71253;SDS011;59019;47.638;18.966;2023-01-20T09:21:05;15.05;;;6.60;;
71253;SDS011;59019;47.638;18.966;2023-01-20T09:23:32;17.53;;;7.07;;
71253;SDS011;59019;47.638;18.966;2023-01-20T09:25:59;13.50;;;6.05;;
71253;SDS011;59019;47.638;18.966;2023-01-20T09:28:25;14.60;;;5.82;;
71253;SDS011;59019;47.638;18.966;2023-01-20T09:31:01;15.02;;;6.38;;
71253;SDS011;59019;47.638;18.966;2023-01-20T09:33:31;14.65;;;6.30;;
71253;SDS011;59019;47.638;18.966;2023-01-20T09:36:00;13.33;;;5.83;;
71253;SDS011;59019;47.638;18.966;2023-01-20T09:38:26;13.40;;;6.13;;
71253;SDS011;59019;47.638;18.966;2023-01-20T09:41:13;13.40;;;6.38;;
71253;SDS011;59019;47.638;18.966;2023-01-20T09:47:17;10.52;;;5.53;;
71253;SDS011;59019;47.638;18.966;2023-01-20T09:52:34;10.90;;;4.95;;
71253;SDS011;59019;47.638;18.966;2023-01-20T09:55:24;12.80;;;5.40;;
71253;SDS011;59019;47.638;18.966;2023-01-20T10:00:41;12.98;;;5.50;;
71253;SDS011;59019;47.638;18.966;2023-01-20T10:03:14;11.90;;;5.60;;
71253;SDS011;59019;47.638;18.966;2023-01-20T10:05:44;11.70;;;5.10;;
71253;SDS011;59019;47.638;18.966;2023-01-20T10:08:19;11.10;;;4.60;;
71253;SDS011;59019;47.638;18.966;2023-01-20T10:11:11;9.35;;;4.30;;
71253;SDS011;59019;47.638;18.966;2023-01-20T10:13:41;10.02;;;4.57;;
71253;SDS011;59019;47.638;18.966;2023-01-20T10:19:12;10.68;;;4.95;;
71253;SDS011;59019;47.638;18.966;2023-01-20T10:21:56;10.95;;;4.75;;
71253;SDS011;59019;47.638;18.966;2023-01-20T10:24:39;11.20;;;5.63;;
71253;SDS011;59019;47.638;18.966;2023-01-20T10:27:20;11.15;;;5.07;;
71253;SDS011;59019;47.638;18.966;2023-01-20T10:29:56;11.47;;;5.30;;
71253;SDS011;59019;47.638;18.966;2023-01-20T10:32:30;9.93;;;4.85;;
71253;SDS011;59019;47.638;18.966;2023-01-20T10:35:02;11.45;;;5.00;;
71253;SDS011;59019;47.638;18.966;2023-01-20T10:37:39;9.10;;;4.50;;
71253;SDS011;59019;47.638;18.966;2023-01-20T10:40:09;8.07;;;3.57;;
71253;SDS011;59019;47.638;18.966;2023-01-20T10:42:39;9.43;;;4.13;;
71253;SDS011;59019;47.638;18.966;2023-01-20T10:45:12;7.95;;;4.00;;
71253;SDS011;59019;47.638;18.966;2023-01-20T10:47:47;10.57;;;4.60;;
71253;SDS011;59019;47.638;18.966;2023-01-20T10:53:28;11.03;;;4.93;;
71253;SDS011;59019;47.638;18.966;2023-01-20T10:58:38;35.95;;;14.65;;
71253;SDS011;59019;47.638;18.966;2023-01-20T11:01:10;33.13;;;13.07;;
71253;SDS011;59019;47.638;18.966;2023-01-20T11:03:40;53.63;;;21.92;;
71253;SDS011;59019;47.638;18.966;2023-01-20T11:06:08;26.50;;;10.13;;
71253;SDS011;59019;47.638;18.966;2023-01-20T11:08:46;21.77;;;8.45;;
71253;SDS011;59019;47.638;18.966;2023-01-20T11:11:15;16.52;;;7.10;;
71253;SDS011;59019;47.638;18.966;2023-01-20T11:13:44;14.50;;;6.38;;
71253;SDS011;59019;47.638;18.966;2023-01-20T11:16:21;12.13;;;5.28;;
71253;SDS011;59019;47.638;18.966;2023-01-20T11:18:59;11.10;;;5.00;;
71253;SDS011;59019;47.638;18.966;2023-01-20T11:21:29;9.60;;;4.75;;
71253;SDS011;59019;47.638;18.966;2023-01-20T11:23:57;11.90;;;5.20;;
71253;SDS011;59019;47.638;18.966;2023-01-20T11:26:30;9.60;;;5.10;;
71253;SDS011;59019;47.638;18.966;2023-01-20T11:28:58;11.65;;;5.20;;
71253;SDS011;59019;47.638;18.966;2023-01-20T11:31:36;8.50;;;3.67;;
71253;SDS011;59019;47.638;18.966;2023-01-20T11:37:11;10.80;;;5.32;;
71253;SDS011;59019;47.638;18.966;2023-01-20T11:42:26;15.93;;;8.38;;
71253;SDS011;59019;47.638;18.966;2023-01-20T11:44:54;10.77;;;4.90;;
71253;SDS011;59019;47.638;18.966;2023-01-20T11:47:22;10.32;;;4.90;;
71253;SDS011;59019;47.638;18.966;2023-01-20T11:57:37;8.70;;;3.40;;
71253;SDS011;59019;47.638;18.966;2023-01-20T12:00:47;7.50;;;3.25;;
71253;SDS011;59019;47.638;18.966;2023-01-20T12:09:09;15.85;;;7.28;;
71253;SDS011;59019;47.638;18.966;2023-01-20T12:23:31;15.02;;;6.82;;
71253;SDS011;59019;47.638;18.966;2023-01-20T12:26:09;30.47;;;12.40;;
71253;SDS011;59019;47.638;18.966;2023-01-20T12:31:05;11.50;;;5.35;;
71253;SDS011;59019;47.638;18.966;2023-01-20T12:39:09;12.52;;;6.03;;
71253;SDS011;59019;47.638;18.966;2023-01-20T12:46:57;12.40;;;6.05;;
71253;SDS011;59019;47.638;18.966;2023-01-20T13:14:24;23.13;;;10.30;;
71253;SDS011;59019;47.638;18.966;2023-01-20T13:17:05;28.38;;;15.77;;
71253;SDS011;59019;47.638;18.966;2023-01-20T13:19:48;22.55;;;10.50;;
71253;SDS011;59019;47.638;18.966;2023-01-20T13:22:17;24.73;;;12.15;;
71253;SDS011;59019;47.638;18.966;2023-01-20T13:24:45;20.50;;;10.40;;
71253;SDS011;59019;47.638;18.966;2023-01-20T13:27:18;29.50;;;14.65;;
71253;SDS011;59019;47.638;18.966;2023-01-20T13:32:49;25.90;;;11.87;;
71253;SDS011;59019;47.638;18.966;2023-01-20T13:43:00;32.80;;;15.57;;
71253;SDS011;59019;47.638;18.966;2023-01-20T13:45:46;25.50;;;13.25;;
71253;SDS011;59019;47.638;18.966;2023-01-20T13:50:41;24.63;;;11.47;;
71253;SDS011;59019;47.638;18.966;2023-01-20T14:00:44;25.37;;;11.83;;
71253;SDS011;59019;47.638;18.966;2023-01-20T14:05:47;51.17;;;19.75;;
71253;SDS011;59019;47.638;18.966;2023-01-20T14:08:15;28.50;;;14.15;;
71253;SDS011;59019;47.638;18.966;2023-01-20T14:10:41;32.10;;;14.17;;
71253;SDS011;59019;47.638;18.966;2023-01-20T14:13:07;29.48;;;14.18;;
71253;SDS011;59019;47.638;18.966;2023-01-20T14:15:35;26.55;;;12.70;;
71253;SDS011;59019;47.638;18.966;2023-01-20T14:18:02;26.02;;;12.02;;
71253;SDS011;59019;47.638;18.966;2023-01-20T14:20:28;29.60;;;11.93;;
71253;SDS011;59019;47.638;18.966;2023-01-20T14:22:55;23.43;;;13.53;;
71253;SDS011;59019;47.638;18.966;2023-01-20T14:25:41;24.80;;;11.73;;
71253;SDS011;59019;47.638;18.966;2023-01-20T14:28:18;24.83;;;12.38;;
71253;SDS011;59019;47.638;18.966;2023-01-20T14:30:44;21.75;;;10.65;;
71253;SDS011;59019;47.638;18.966;2023-01-20T14:33:12;25.53;;;12.37;;
71253;SDS011;59019;47.638;18.966;2023-01-20T14:35:40;24.15;;;11.27;;
71253;SDS011;59019;47.638;18.966;2023-01-20T14:38:12;23.20;;;10.87;;
71253;SDS011;59019;47.638;18.966;2023-01-20T14:40:42;25.98;;;12.68;;
71253;SDS011;59019;47.638;18.966;2023-01-20T14:43:15;26.87;;;12.73;;
71253;SDS011;59019;47.638;18.966;2023-01-20T14:45:50;31.63;;;14.15;;
71253;SDS011;59019;47.638;18.966;2023-01-20T14:48:16;31.90;;;15.00;;
71253;SDS011;59019;47.638;18.966;2023-01-20T14:50:42;32.08;;;15.23;;
71253;SDS011;59019;47.638;18.966;2023-01-20T14:53:14;27.40;;;12.80;;
71253;SDS011;59019;47.638;18.966;2023-01-20T14:55:39;28.77;;;14.43;;
71253;SDS011;59019;47.638;18.966;2023-01-20T14:58:16;23.52;;;11.68;;
71253;SDS011;59019;47.638;18.966;2023-01-20T15:00:46;26.03;;;12.40;;
71253;SDS011;59019;47.638;18.966;2023-01-20T15:03:23;23.58;;;12.32;;
71253;SDS011;59019;47.638;18.966;2023-01-20T15:05:59;22.92;;;12.05;;
71253;SDS011;59019;47.638;18.966;2023-01-20T15:11:07;22.63;;;10.73;;
71253;SDS011;59019;47.638;18.966;2023-01-20T15:13:34;22.77;;;11.00;;
71253;SDS011;59019;47.638;18.966;2023-01-20T15:18:42;21.65;;;10.90;;
71253;SDS011;59019;47.638;18.966;2023-01-20T15:21:27;23.27;;;11.88;;
71253;SDS011;59019;47.638;18.966;2023-01-20T15:23:52;21.67;;;11.87;;
71253;SDS011;59019;47.638;18.966;2023-01-20T15:26:22;22.23;;;10.77;;
71253;SDS011;59019;47.638;18.966;2023-01-20T15:28:53;21.95;;;12.35;;
71253;SDS011;59019;47.638;18.966;2023-01-20T15:31:19;22.00;;;11.40;;
71253;SDS011;59019;47.638;18.966;2023-01-20T15:33:45;21.63;;;10.40;;
71253;SDS011;59019;47.638;18.966;2023-01-20T15:36:28;21.40;;;10.38;;
71253;SDS011;59019;47.638;18.966;2023-01-20T15:38:57;19.10;;;9.37;;
71253;SDS011;59019;47.638;18.966;2023-01-20T15:41:23;22.45;;;11.50;;
71253;SDS011;59019;47.638;18.966;2023-01-20T15:43:49;23.27;;;10.18;;
71253;SDS011;59019;47.638;18.966;2023-01-20T15:46:16;21.58;;;10.57;;
71253;SDS011;59019;47.638;18.966;2023-01-20T15:48:43;24.10;;;11.30;;
71253;SDS011;59019;47.638;18.966;2023-01-20T15:51:16;22.52;;;11.15;;
71253;SDS011;59019;47.638;18.966;2023-01-20T15:53:44;20.45;;;10.45;;
71253;SDS011;59019;47.638;18.966;2023-01-20T15:56:15;25.17;;;10.70;;
71253;SDS011;59019;47.638;18.966;2023-01-20T15:58:44;24.15;;;11.00;;
71253;SDS011;59019;47.638;18.966;2023-01-20T16:01:12;37.73;;;17.67;;
71253;SDS011;59019;47.638;18.966;2023-01-20T16:03:40;55.90;;;26.70;;
71253;SDS011;59019;47.638;18.966;2023-01-20T16:06:09;33.20;;;16.55;;
71253;SDS011;59019;47.638;18.966;2023-01-20T16:08:37;29.10;;;14.53;;
71253;SDS011;59019;47.638;18.966;2023-01-20T16:11:03;33.60;;;15.60;;
71253;SDS011;59019;47.638;18.966;2023-01-20T16:13:28;34.47;;;15.23;;
71253;SDS011;59019;47.638;18.966;2023-01-20T16:15:54;46.77;;;20.63;;
71253;SDS011;59019;47.638;18.966;2023-01-20T16:18:21;32.10;;;14.63;;
71253;SDS011;59019;47.638;18.966;2023-01-20T16:20:46;41.60;;;18.37;;
71253;SDS011;59019;47.638;18.966;2023-01-20T16:23:14;36.30;;;16.77;;
71253;SDS011;59019;47.638;18.966;2023-01-20T16:25:40;40.92;;;16.83;;
71253;SDS011;59019;47.638;18.966;2023-01-20T16:28:16;38.90;;;16.85;;
71253;SDS011;59019;47.638;18.966;2023-01-20T16:30:45;32.80;;;15.33;;
71253;SDS011;59019;47.638;18.966;2023-01-20T16:35:43;33.05;;;16.45;;
71253;SDS011;59019;47.638;18.966;2023-01-20T16:38:12;29.27;;;15.20;;
71253;SDS011;59019;47.638;18.966;2023-01-20T16:40:43;26.40;;;12.87;;
71253;SDS011;59019;47.638;18.966;2023-01-20T16:43:11;31.88;;;14.13;;
71253;SDS011;59019;47.638;18.966;2023-01-20T16:45:37;52.17;;;21.48;;
71253;SDS011;59019;47.638;18.966;2023-01-20T16:48:02;51.47;;;21.50;;
71253;SDS011;59019;47.638;18.966;2023-01-20T16:50:28;48.83;;;20.57;;
71253;SDS011;59019;47.638;18.966;2023-01-20T16:52:54;57.53;;;24.60;;
71253;SDS011;59019;47.638;18.966;2023-01-20T16:55:21;38.22;;;17.10;;
71253;SDS011;59019;47.638;18.966;2023-01-20T16:57:48;32.00;;;15.23;;
71253;SDS011;59019;47.638;18.966;2023-01-20T17:00:13;29.33;;;15.55;;